createdAt,value
2023-05-31T00:00:17.437Z,2906.00
2023-05-31T00:01:17.444Z,2896.00
2023-05-31T00:02:17.469Z,2914.00
2023-05-31T00:03:17.646Z,2907.00
2023-05-31T00:04:17.523Z,2896.00
2023-05-31T00:05:17.485Z,2896.00
2023-05-31T00:06:17.495Z,2897.00
2023-05-31T00:07:17.440Z,2902.00
2023-05-31T00:08:17.396Z,2883.00
2023-05-31T00:09:17.370Z,2900.00
2023-05-31T00:10:17.366Z,2890.00
2023-05-31T00:11:17.336Z,2895.00
2023-05-31T00:12:17.301Z,2891.00
2023-05-31T00:13:17.272Z,2893.00
2023-05-31T00:14:17.237Z,2893.00
2023-05-31T00:15:17.240Z,2880.00
2023-05-31T00:16:45.070Z,2880.00
2023-05-31T00:18:18.310Z,2882.00
2023-05-31T00:19:17.204Z,2885.00
2023-05-31T00:20:17.151Z,2890.00
2023-05-31T00:21:17.094Z,2877.00
2023-05-31T00:22:17.071Z,2901.00
2023-05-31T00:23:17.047Z,2888.00
2023-05-31T00:24:17.012Z,2887.00
2023-05-31T00:25:16.983Z,2890.00
2023-05-31T00:26:16.958Z,2876.00
2023-05-31T00:27:16.919Z,2875.00
2023-05-31T00:28:16.972Z,2877.00
2023-05-31T00:29:16.866Z,2875.00
2023-05-31T00:30:16.840Z,2865.00
2023-05-31T00:31:16.841Z,2853.00
2023-05-31T00:32:16.790Z,2865.00
2023-05-31T00:33:16.740Z,2849.00
2023-05-31T00:34:16.710Z,2861.00
2023-05-31T00:35:16.693Z,2849.00
2023-05-31T00:36:16.673Z,2854.00
2023-05-31T00:37:16.623Z,2842.00
2023-05-31T00:38:16.603Z,2842.00
2023-05-31T00:39:16.629Z,2828.00
2023-05-31T00:40:16.654Z,2840.00
2023-05-31T00:41:16.694Z,2830.00
2023-05-31T00:42:16.726Z,2838.00
2023-05-31T00:43:16.740Z,2842.00
2023-05-31T00:44:16.778Z,2823.00
2023-05-31T00:45:16.797Z,2833.00
2023-05-31T00:46:16.829Z,2822.00
2023-05-31T00:47:16.881Z,2832.00
2023-05-31T00:48:16.981Z,2828.00
2023-05-31T00:49:16.933Z,2820.00
2023-05-31T00:50:16.953Z,2822.00
2023-05-31T00:51:16.978Z,2807.00
2023-05-31T00:52:17.001Z,2808.00
2023-05-31T00:53:17.038Z,2803.00
2023-05-31T00:54:17.083Z,2821.00
2023-05-31T00:55:17.120Z,2801.00
2023-05-31T00:56:17.190Z,2811.00
2023-05-31T00:57:17.213Z,2796.00
2023-05-31T00:58:17.252Z,2794.00
2023-05-31T00:59:17.281Z,2797.00
2023-05-31T01:00:17.325Z,2795.00
2023-05-31T01:01:17.450Z,2797.00
2023-05-31T01:02:17.394Z,2800.00
2023-05-31T01:03:17.464Z,2798.00
2023-05-31T01:04:17.499Z,2786.00
2023-05-31T01:05:17.493Z,2793.00
2023-05-31T01:06:17.530Z,2791.00
2023-05-31T01:07:17.486Z,2792.00
2023-05-31T01:08:17.498Z,2794.00
2023-05-31T01:09:17.442Z,2792.00
2023-05-31T01:10:17.438Z,2797.00
2023-05-31T01:11:17.396Z,2796.00
2023-05-31T01:12:17.381Z,2788.00
2023-05-31T01:13:17.332Z,2790.00
2023-05-31T01:14:17.307Z,2783.00
2023-05-31T01:15:17.275Z,2767.00
2023-05-31T01:16:17.329Z,2773.00
2023-05-31T01:17:17.313Z,2772.00
2023-05-31T01:18:17.336Z,2765.00
2023-05-31T01:19:17.368Z,2770.00
2023-05-31T01:20:17.429Z,2762.00
2023-05-31T01:21:17.432Z,2766.00
2023-05-31T01:22:17.464Z,2767.00
2023-05-31T01:23:17.511Z,2772.00
2023-05-31T01:24:17.564Z,2758.00
2023-05-31T01:25:17.589Z,2755.00
2023-05-31T01:26:17.625Z,2759.00
2023-05-31T01:27:17.672Z,2751.00
2023-05-31T01:28:17.712Z,2759.00
2023-05-31T01:29:17.752Z,2752.00
2023-05-31T01:30:17.793Z,2746.00
2023-05-31T01:31:17.873Z,2738.00
2023-05-31T01:32:17.872Z,2747.00
2023-05-31T01:33:17.893Z,2737.00
2023-05-31T01:34:17.963Z,2724.00
2023-05-31T01:35:17.971Z,2732.00
2023-05-31T01:36:18.012Z,2732.00
2023-05-31T01:37:18.049Z,2734.00
2023-05-31T01:38:18.100Z,2740.00
2023-05-31T01:39:18.122Z,2734.00
2023-05-31T01:40:18.172Z,2723.00
2023-05-31T01:41:18.206Z,2715.00
2023-05-31T01:42:18.247Z,2716.00
2023-05-31T01:43:18.254Z,2722.00
2023-05-31T01:44:18.281Z,2716.00
2023-05-31T01:45:18.308Z,2709.00
2023-05-31T01:46:18.437Z,2710.00
2023-05-31T01:47:18.386Z,2712.00
2023-05-31T01:48:18.430Z,2720.00
2023-05-31T01:49:18.495Z,2693.00
2023-05-31T01:50:18.507Z,2704.00
2023-05-31T01:51:18.521Z,2707.00
2023-05-31T01:52:18.557Z,2688.00
2023-05-31T01:53:18.595Z,2692.00
2023-05-31T01:54:18.624Z,2688.00
2023-05-31T01:55:18.654Z,2704.00
2023-05-31T01:56:18.713Z,2697.00
2023-05-31T01:57:18.766Z,2672.00
2023-05-31T01:58:18.797Z,2683.00
2023-05-31T01:59:18.839Z,2686.00
2023-05-31T02:00:18.873Z,2691.00
2023-05-31T02:01:18.988Z,2674.00
2023-05-31T02:02:18.962Z,2677.00
2023-05-31T02:03:19.039Z,2678.00
2023-05-31T02:04:19.049Z,2676.00
2023-05-31T02:05:19.075Z,2677.00
2023-05-31T02:06:19.125Z,2677.00
2023-05-31T02:07:19.155Z,2676.00
2023-05-31T02:08:19.184Z,2673.00
2023-05-31T02:09:19.207Z,2678.00
2023-05-31T02:10:19.230Z,2669.00
2023-05-31T02:11:19.266Z,2657.00
2023-05-31T02:12:19.311Z,2665.00
2023-05-31T02:13:19.290Z,2665.00
2023-05-31T02:14:19.244Z,2667.00
2023-05-31T02:15:19.229Z,2665.00
2023-05-31T02:16:19.203Z,2664.00
2023-05-31T02:17:19.173Z,2658.00
2023-05-31T02:18:19.175Z,2657.00
2023-05-31T02:19:19.126Z,2634.00
2023-05-31T02:20:19.154Z,2650.00
2023-05-31T02:21:19.155Z,2657.00
2023-05-31T02:22:19.116Z,2658.00
2023-05-31T02:23:19.097Z,2654.00
2023-05-31T02:24:19.076Z,2661.00
2023-05-31T02:25:19.060Z,2649.00
2023-05-31T02:26:19.044Z,2651.00
2023-05-31T02:27:18.999Z,2650.00
2023-05-31T02:28:18.976Z,2632.00
2023-05-31T02:29:18.932Z,2653.00
2023-05-31T02:30:18.933Z,2648.00
2023-05-31T02:31:19.021Z,2641.00
2023-05-31T02:32:18.961Z,2638.00
2023-05-31T02:33:18.960Z,2642.00
2023-05-31T02:34:18.975Z,2623.00
2023-05-31T02:35:19.014Z,2626.00
2023-05-31T02:36:19.046Z,2623.00
2023-05-31T02:37:19.049Z,2623.00
2023-05-31T02:38:19.046Z,2608.00
2023-05-31T02:39:19.052Z,2621.00
2023-05-31T02:40:19.080Z,2616.00
2023-05-31T02:41:19.109Z,2626.00
2023-05-31T02:42:19.149Z,2625.00
2023-05-31T02:43:19.166Z,2616.00
2023-05-31T02:44:19.210Z,2626.00
2023-05-31T02:45:19.251Z,2605.00
2023-05-31T02:46:19.342Z,2604.00
2023-05-31T02:47:19.329Z,2612.00
2023-05-31T02:48:19.410Z,2601.00
2023-05-31T02:49:19.417Z,2605.00
2023-05-31T02:50:19.469Z,2581.00
2023-05-31T02:51:19.524Z,2558.00
2023-05-31T02:52:19.541Z,2526.00
2023-05-31T02:53:19.561Z,2420.00
2023-05-31T02:54:19.558Z,2338.00
2023-05-31T02:55:19.550Z,2280.00
2023-05-31T02:56:19.544Z,2195.00
2023-05-31T02:57:19.517Z,2148.00
2023-05-31T02:58:19.507Z,2096.00
2023-05-31T02:59:19.523Z,2038.00
2023-05-31T03:00:19.504Z,2025.00
2023-05-31T03:01:19.518Z,1964.00
2023-05-31T03:02:19.525Z,1941.00
2023-05-31T03:03:19.663Z,1900.00
2023-05-31T03:04:19.575Z,1852.00
2023-05-31T03:05:19.621Z,1830.00
2023-05-31T03:06:19.626Z,1780.00
2023-05-31T03:07:19.644Z,1751.00
2023-05-31T03:08:19.686Z,1724.00
2023-05-31T03:09:19.727Z,1693.00
2023-05-31T03:10:19.758Z,1660.00
2023-05-31T03:11:19.819Z,1638.00
2023-05-31T03:12:19.784Z,1638.00
2023-05-31T03:13:19.782Z,1617.00
2023-05-31T03:14:19.767Z,1571.00
2023-05-31T03:15:19.769Z,1554.00
2023-05-31T03:16:19.813Z,1548.00
2023-05-31T03:17:19.723Z,1521.00
2023-05-31T03:18:19.730Z,1498.00
2023-05-31T03:19:19.708Z,1474.00
2023-05-31T03:20:19.763Z,1473.00
2023-05-31T03:21:19.721Z,1437.00
2023-05-31T03:22:19.732Z,1433.00
2023-05-31T03:23:19.794Z,1405.00
2023-05-31T03:24:19.854Z,1401.00
2023-05-31T03:25:19.930Z,1381.00
2023-05-31T03:26:19.980Z,1375.00
2023-05-31T03:27:20.044Z,1354.00
2023-05-31T03:28:20.096Z,1363.00
2023-05-31T03:29:20.202Z,1354.00
2023-05-31T03:30:20.253Z,1329.00
2023-05-31T03:31:20.429Z,1332.00
2023-05-31T03:32:20.362Z,1318.00
2023-05-31T03:33:20.444Z,1313.00
2023-05-31T03:34:20.490Z,1305.00
2023-05-31T03:35:20.557Z,1312.00
2023-05-31T03:36:20.598Z,1284.00
2023-05-31T03:37:20.659Z,1283.00
2023-05-31T03:38:20.709Z,1274.00
2023-05-31T03:39:20.775Z,1259.00
2023-05-31T03:40:20.829Z,1265.00
2023-05-31T03:41:20.876Z,1246.00
2023-05-31T03:42:20.945Z,1253.00
2023-05-31T03:43:21.003Z,1236.00
2023-05-31T03:44:21.023Z,1227.00
2023-05-31T03:45:21.037Z,1230.00
2023-05-31T03:46:21.136Z,1226.00
2023-05-31T03:47:21.100Z,1223.00
2023-05-31T03:48:21.122Z,1229.00
2023-05-31T03:49:21.169Z,1211.00
2023-05-31T03:50:21.244Z,1205.00
2023-05-31T03:51:21.311Z,1194.00
2023-05-31T03:52:21.364Z,1191.00
2023-05-31T03:53:21.427Z,1196.00
2023-05-31T03:54:21.479Z,1215.00
2023-05-31T03:55:21.541Z,1202.00
2023-05-31T03:56:21.596Z,1225.00
2023-05-31T03:57:21.654Z,1225.00
2023-05-31T03:58:21.722Z,1224.00
2023-05-31T03:59:21.812Z,1244.00
2023-05-31T04:00:21.877Z,1256.00
2023-05-31T04:01:21.953Z,1254.00
2023-05-31T04:02:22.005Z,1251.00
2023-05-31T04:03:22.123Z,1262.00
2023-05-31T04:04:22.158Z,1263.00
2023-05-31T04:05:22.018Z,1251.00
2023-05-31T04:06:22.025Z,1265.00
2023-05-31T04:07:22.014Z,1265.00
2023-05-31T04:08:22.022Z,1257.00
2023-05-31T04:09:22.010Z,1272.00
2023-05-31T04:10:22.037Z,1276.00
2023-05-31T04:11:22.020Z,1283.00
2023-05-31T04:12:22.010Z,1276.00
2023-05-31T04:13:22.009Z,1286.00
2023-05-31T04:14:22.018Z,1287.00
2023-05-31T04:15:22.013Z,1288.00
2023-05-31T04:16:22.006Z,1288.00
2023-05-31T04:17:21.996Z,1291.00
2023-05-31T04:18:22.001Z,1292.00
2023-05-31T04:19:22.017Z,1283.00
2023-05-31T04:20:22.003Z,1283.00
2023-05-31T04:21:21.998Z,1284.00
2023-05-31T04:22:22.004Z,1283.00
2023-05-31T04:23:22.030Z,1269.00
2023-05-31T04:24:21.997Z,1264.00
2023-05-31T04:25:22.010Z,1257.00
2023-05-31T04:26:22.090Z,1262.00
2023-05-31T04:27:22.071Z,1251.00
2023-05-31T04:28:22.007Z,1256.00
2023-05-31T04:29:22.011Z,1251.00
2023-05-31T04:30:22.063Z,1265.00
2023-05-31T04:31:22.058Z,1262.00
2023-05-31T04:32:22.078Z,1268.00
2023-05-31T04:33:22.091Z,1274.00
2023-05-31T04:34:22.022Z,1273.00
2023-05-31T04:35:22.019Z,1294.00
2023-05-31T04:36:22.074Z,1295.00
2023-05-31T04:37:22.015Z,1298.00
2023-05-31T04:38:22.019Z,1308.00
2023-05-31T04:39:22.018Z,1328.00
2023-05-31T04:40:22.019Z,1346.00
2023-05-31T04:41:22.011Z,1357.00
2023-05-31T04:42:22.018Z,1361.00
2023-05-31T04:43:22.001Z,1364.00
2023-05-31T04:44:22.038Z,1366.00
2023-05-31T04:45:22.019Z,1371.00
2023-05-31T04:46:22.051Z,1388.00
2023-05-31T04:47:22.028Z,1423.00
2023-05-31T04:48:21.999Z,1370.00
2023-05-31T04:49:21.959Z,1394.00
2023-05-31T04:50:21.953Z,1435.00
2023-05-31T04:51:21.951Z,1515.00
2023-05-31T04:52:21.938Z,1604.00
2023-05-31T04:53:21.924Z,1634.00
2023-05-31T04:54:21.965Z,1643.00
2023-05-31T04:55:21.942Z,1645.00
2023-05-31T04:56:21.942Z,1638.00
2023-05-31T04:57:21.927Z,1639.00
2023-05-31T04:58:21.949Z,1645.00
2023-05-31T04:59:21.912Z,1652.00
2023-05-31T05:00:21.903Z,1678.00
2023-05-31T05:01:21.895Z,1693.00
2023-05-31T05:02:21.874Z,1694.00
2023-05-31T05:03:21.950Z,1690.00
2023-05-31T05:04:21.844Z,1687.00
2023-05-31T05:05:21.851Z,1696.00
2023-05-31T05:06:21.828Z,1713.00
2023-05-31T05:07:21.878Z,1709.00
2023-05-31T05:08:21.902Z,1717.00
2023-05-31T05:09:21.876Z,1718.00
2023-05-31T05:10:21.866Z,1718.00
2023-05-31T05:11:21.838Z,1722.00
2023-05-31T05:12:21.816Z,1721.00
2023-05-31T05:13:21.802Z,1719.00
2023-05-31T05:14:21.818Z,1731.00
2023-05-31T05:15:21.771Z,1728.00
2023-05-31T05:16:21.752Z,1722.00
2023-05-31T05:17:21.721Z,1743.00
2023-05-31T05:18:21.748Z,1736.00
2023-05-31T05:19:21.702Z,1717.00
2023-05-31T05:20:21.704Z,1721.00
2023-05-31T05:21:21.673Z,1697.00
2023-05-31T05:22:21.647Z,1716.00
2023-05-31T05:23:21.657Z,1733.00
2023-05-31T05:24:21.693Z,1717.00
2023-05-31T05:25:21.743Z,1718.00
2023-05-31T05:26:21.745Z,1735.00
2023-05-31T05:27:21.783Z,1744.00
2023-05-31T05:28:21.805Z,1742.00
2023-05-31T05:29:21.858Z,1727.00
2023-05-31T05:30:21.857Z,1715.00
2023-05-31T05:31:21.916Z,1718.00
2023-05-31T05:32:21.853Z,1720.00
2023-05-31T05:33:21.847Z,1720.00
2023-05-31T05:34:21.900Z,1725.00
2023-05-31T05:35:21.851Z,1732.00
2023-05-31T05:36:21.824Z,1721.00
2023-05-31T05:37:21.777Z,1729.00
2023-05-31T05:38:21.759Z,1746.00
2023-05-31T05:39:21.729Z,1775.00
2023-05-31T05:40:21.717Z,1805.00
2023-05-31T05:41:21.701Z,1803.00
2023-05-31T05:42:21.674Z,1802.00
2023-05-31T05:43:21.650Z,1837.00
2023-05-31T05:44:21.620Z,1859.00
2023-05-31T05:45:21.611Z,1891.00
2023-05-31T05:46:21.644Z,1893.00
2023-05-31T05:47:21.585Z,1906.00
2023-05-31T05:48:21.586Z,1928.00
2023-05-31T05:49:21.553Z,1930.00
2023-05-31T05:50:21.556Z,1935.00
2023-05-31T05:51:21.630Z,1944.00
2023-05-31T05:52:21.617Z,1981.00
2023-05-31T05:53:21.567Z,1983.00
2023-05-31T05:54:21.552Z,1992.00
2023-05-31T05:55:21.562Z,1984.00
2023-05-31T05:56:21.528Z,1995.00
2023-05-31T05:57:21.507Z,2021.00
2023-05-31T05:58:21.482Z,2067.00
2023-05-31T05:59:21.446Z,2136.00
2023-05-31T06:00:21.469Z,2197.00
2023-05-31T06:01:21.428Z,2204.00
2023-05-31T06:02:21.427Z,2229.00
2023-05-31T06:03:21.441Z,2245.00
2023-05-31T06:04:21.337Z,2255.00
2023-05-31T06:05:21.327Z,2279.00
2023-05-31T06:06:21.293Z,2282.00
2023-05-31T06:07:21.293Z,2314.00
2023-05-31T06:08:21.269Z,2321.00
2023-05-31T06:09:21.223Z,2344.00
2023-05-31T06:10:21.170Z,2359.00
2023-05-31T06:11:21.151Z,2369.00
2023-05-31T06:12:21.124Z,2389.00
2023-05-31T06:13:21.083Z,2414.00
2023-05-31T06:14:21.065Z,2421.00
2023-05-31T06:15:21.101Z,2427.00
2023-05-31T06:16:21.222Z,2445.00
2023-05-31T06:17:21.266Z,2463.00
2023-05-31T06:18:21.195Z,2452.00
2023-05-31T06:19:21.202Z,2475.00
2023-05-31T06:20:21.268Z,2479.00
2023-05-31T06:21:21.184Z,2481.00
2023-05-31T06:22:21.175Z,2494.00
2023-05-31T06:23:21.121Z,2517.00
2023-05-31T06:24:21.099Z,2563.00
2023-05-31T06:25:21.070Z,2657.00
2023-05-31T06:26:21.042Z,2700.00
2023-05-31T06:27:21.009Z,2723.00
2023-05-31T06:28:20.961Z,2775.00
2023-05-31T06:29:20.927Z,2802.00
2023-05-31T06:30:20.956Z,2813.00
2023-05-31T06:31:20.874Z,2822.00
2023-05-31T06:32:20.845Z,2845.00
2023-05-31T06:33:20.844Z,2861.00
2023-05-31T06:34:20.851Z,2876.00
2023-05-31T06:35:20.868Z,2912.00
2023-05-31T06:36:20.864Z,2905.00
2023-05-31T06:37:20.885Z,2910.00
2023-05-31T06:38:20.874Z,2918.00
2023-05-31T06:39:20.849Z,2920.00
2023-05-31T06:40:20.799Z,2928.00
2023-05-31T06:41:20.753Z,2939.00
2023-05-31T06:42:20.758Z,2970.00
2023-05-31T06:43:20.731Z,2965.00
2023-05-31T06:44:20.665Z,2978.00
2023-05-31T06:45:20.614Z,2984.00
2023-05-31T06:46:20.601Z,2982.00
2023-05-31T06:47:20.789Z,2753.00
2023-05-31T06:48:20.556Z,2374.00
2023-05-31T06:49:20.536Z,2167.00
2023-05-31T06:50:20.473Z,1988.00
2023-05-31T06:51:20.541Z,1967.00
2023-05-31T06:52:20.547Z,1949.00
2023-05-31T06:53:20.567Z,1857.00
2023-05-31T06:54:20.597Z,1890.00
2023-05-31T06:55:20.633Z,1828.00
2023-05-31T06:56:20.650Z,1719.00
2023-05-31T06:57:20.704Z,1600.00
2023-05-31T06:58:20.728Z,1482.00
2023-05-31T06:59:20.775Z,1390.00
2023-05-31T07:00:20.831Z,1216.00
2023-05-31T07:01:20.893Z,1094.00
2023-05-31T07:02:20.900Z,1046.00
2023-05-31T07:03:20.972Z,1017.00
2023-05-31T07:04:20.899Z,980.00
2023-05-31T07:05:20.880Z,895.00
2023-05-31T07:06:22.459Z,851.00
2023-05-31T07:07:20.872Z,799.00
2023-05-31T07:08:20.818Z,745.00
2023-05-31T07:09:20.799Z,745.00
2023-05-31T07:10:20.775Z,806.00
2023-05-31T07:11:20.787Z,841.00
2023-05-31T07:12:20.724Z,878.00
2023-05-31T07:13:20.736Z,975.00
2023-05-31T07:14:20.704Z,1049.00
2023-05-31T07:15:20.705Z,1121.00
2023-05-31T07:16:20.784Z,1168.00
2023-05-31T07:17:20.785Z,1129.00
2023-05-31T07:18:20.826Z,1084.00
2023-05-31T07:19:20.871Z,1031.00
2023-05-31T07:20:20.930Z,952.00
2023-05-31T07:21:20.953Z,778.00
2023-05-31T07:22:20.991Z,630.00
2023-05-31T07:23:20.997Z,565.00
2023-05-31T07:24:21.009Z,539.00
2023-05-31T07:25:21.015Z,501.00
2023-05-31T07:26:21.014Z,502.00
2023-05-31T07:27:20.991Z,499.00
2023-05-31T07:28:20.987Z,500.00
2023-05-31T07:29:20.978Z,500.00
2023-05-31T07:30:20.943Z,499.00
2023-05-31T07:31:21.916Z,501.00
2023-05-31T07:32:20.950Z,500.00
2023-05-31T07:33:28.895Z,505.00
2023-05-31T07:34:21.917Z,484.00
2023-05-31T07:35:20.907Z,486.00
2023-05-31T07:36:21.096Z,501.00
2023-05-31T07:37:20.884Z,484.00
2023-05-31T07:38:20.860Z,535.00
2023-05-31T07:39:20.873Z,506.00
2023-05-31T07:40:20.802Z,513.00
2023-05-31T07:41:20.778Z,528.00
2023-05-31T07:42:20.749Z,543.00
2023-05-31T07:43:20.741Z,585.00
2023-05-31T07:44:20.748Z,617.00
2023-05-31T07:45:20.697Z,661.00
2023-05-31T07:46:20.666Z,761.00
2023-05-31T07:47:20.646Z,853.00
2023-05-31T07:48:20.586Z,924.00
2023-05-31T07:49:20.858Z,1012.00
2023-05-31T07:50:20.560Z,1195.00
2023-05-31T07:51:20.792Z,1918.00
2023-05-31T07:52:20.520Z,2380.00
2023-05-31T07:53:20.476Z,2418.00
2023-05-31T07:54:20.449Z,2460.00
2023-05-31T07:55:20.454Z,2423.00
2023-05-31T07:56:20.521Z,2373.00
2023-05-31T07:57:20.423Z,2335.00
2023-05-31T07:58:20.391Z,2230.00
2023-05-31T07:59:20.392Z,2089.00
2023-05-31T08:00:20.320Z,2022.00
2023-05-31T08:01:20.298Z,1889.00
2023-05-31T08:02:20.302Z,1806.00
2023-05-31T08:03:20.280Z,1801.00
2023-05-31T08:04:20.305Z,1775.00
2023-05-31T08:05:20.229Z,1699.00
2023-05-31T08:06:20.149Z,1647.00
2023-05-31T08:07:20.126Z,1556.00
2023-05-31T08:08:20.096Z,1457.00
2023-05-31T08:09:20.078Z,1413.00
2023-05-31T08:10:20.146Z,1330.00
2023-05-31T08:11:20.011Z,1251.00
2023-05-31T08:12:23.800Z,1185.00
2023-05-31T08:13:20.977Z,1186.00
2023-05-31T08:14:19.937Z,1192.00
2023-05-31T08:15:19.896Z,1186.00
2023-05-31T08:16:19.912Z,1155.00
2023-05-31T08:17:19.956Z,1130.00
2023-05-31T08:18:19.842Z,1094.00
2023-05-31T08:19:19.824Z,1102.00
2023-05-31T08:20:19.823Z,1085.00
2023-05-31T08:21:19.759Z,960.00
2023-05-31T08:22:19.741Z,983.00
2023-05-31T08:23:19.715Z,951.00
2023-05-31T08:24:19.680Z,792.00
2023-05-31T08:25:19.658Z,742.00
2023-05-31T08:26:19.642Z,679.00
2023-05-31T08:27:19.711Z,618.00
2023-05-31T08:28:19.624Z,583.00
2023-05-31T08:29:19.578Z,558.00
2023-05-31T08:30:19.614Z,537.00
2023-05-31T08:31:19.651Z,507.00
2023-05-31T08:32:19.646Z,500.00
2023-05-31T08:33:19.677Z,500.00
2023-05-31T08:34:19.682Z,500.00
2023-05-31T08:35:19.694Z,503.00
2023-05-31T08:36:19.692Z,501.00
2023-05-31T08:37:19.699Z,502.00
2023-05-31T08:38:19.645Z,486.00
2023-05-31T08:39:19.630Z,484.00
2023-05-31T08:40:19.615Z,468.00
2023-05-31T08:41:19.588Z,442.00
2023-05-31T08:42:19.602Z,484.00
2023-05-31T08:43:19.530Z,504.00
2023-05-31T08:44:19.501Z,507.00
2023-05-31T08:45:19.501Z,514.00
2023-05-31T08:46:19.536Z,505.00
2023-05-31T08:47:19.536Z,506.00
2023-05-31T08:48:19.515Z,506.00
2023-05-31T08:49:19.378Z,506.00
2023-05-31T08:50:19.367Z,466.00
2023-05-31T08:51:19.339Z,457.00
2023-05-31T08:52:19.314Z,465.00
2023-05-31T08:53:19.308Z,508.00
2023-05-31T08:54:19.255Z,507.00
2023-05-31T08:55:19.299Z,515.00
2023-05-31T08:56:19.348Z,497.00
2023-05-31T08:57:19.437Z,529.00
2023-05-31T08:58:19.434Z,514.00
2023-05-31T08:59:19.493Z,524.00
2023-05-31T09:00:19.536Z,543.00
2023-05-31T09:01:19.593Z,545.00
2023-05-31T09:02:19.612Z,551.00
2023-05-31T09:03:19.640Z,577.00
2023-05-31T09:04:19.697Z,568.00
2023-05-31T09:05:19.774Z,548.00
2023-05-31T09:06:19.792Z,578.00
2023-05-31T09:07:19.875Z,578.00
2023-05-31T09:08:19.830Z,579.00
2023-05-31T09:09:19.735Z,579.00
2023-05-31T09:10:19.725Z,581.00
2023-05-31T09:11:19.691Z,581.00
2023-05-31T09:12:19.733Z,594.00
2023-05-31T09:13:19.642Z,615.00
2023-05-31T09:14:19.604Z,622.00
2023-05-31T09:15:19.659Z,622.00
2023-05-31T09:16:19.695Z,638.00
2023-05-31T09:17:19.687Z,652.00
2023-05-31T09:18:19.696Z,648.00
2023-05-31T09:19:19.765Z,637.00
2023-05-31T09:20:19.872Z,625.00
2023-05-31T09:21:19.774Z,584.00
2023-05-31T09:22:19.844Z,581.00
2023-05-31T09:23:19.831Z,609.00
2023-05-31T09:24:19.833Z,612.00
2023-05-31T09:25:19.857Z,616.00
2023-05-31T09:26:19.901Z,627.00
2023-05-31T09:27:19.914Z,627.00
2023-05-31T09:28:19.934Z,592.00
2023-05-31T09:29:19.929Z,578.00
2023-05-31T09:30:19.971Z,559.00
2023-05-31T09:31:19.887Z,540.00
2023-05-31T09:32:19.866Z,550.00
2023-05-31T09:33:19.904Z,570.00
2023-05-31T09:34:19.840Z,567.00
2023-05-31T09:35:19.739Z,529.00
2023-05-31T09:36:19.729Z,546.00
2023-05-31T09:37:19.684Z,549.00
2023-05-31T09:38:19.655Z,566.00
2023-05-31T09:39:19.629Z,560.00
2023-05-31T09:40:19.602Z,543.00
2023-05-31T09:41:19.573Z,543.00
2023-05-31T09:42:19.559Z,543.00
2023-05-31T09:43:19.581Z,531.00
2023-05-31T09:44:19.479Z,526.00
2023-05-31T09:45:19.447Z,474.00
2023-05-31T09:46:19.442Z,501.00
2023-05-31T09:47:19.408Z,498.00
2023-05-31T09:48:19.343Z,485.00
2023-05-31T09:49:19.314Z,470.00
2023-05-31T09:50:19.383Z,475.00
2023-05-31T09:51:19.267Z,499.00
2023-05-31T09:52:19.237Z,495.00
2023-05-31T09:53:19.381Z,500.00
2023-05-31T09:54:19.197Z,470.00
2023-05-31T09:55:19.134Z,516.00
2023-05-31T09:56:19.178Z,543.00
2023-05-31T09:57:19.086Z,554.00
2023-05-31T09:58:19.061Z,571.00
2023-05-31T09:59:19.102Z,602.00
2023-05-31T10:00:19.128Z,620.00
2023-05-31T10:01:19.178Z,621.00
2023-05-31T10:02:19.167Z,635.00
2023-05-31T10:03:19.246Z,650.00
2023-05-31T10:04:19.139Z,650.00
2023-05-31T10:05:19.108Z,651.00
2023-05-31T10:06:19.088Z,652.00
2023-05-31T10:07:19.051Z,659.00
2023-05-31T10:08:19.064Z,673.00
2023-05-31T10:09:18.993Z,642.00
2023-05-31T10:10:18.971Z,628.00
2023-05-31T10:11:18.939Z,649.00
2023-05-31T10:12:18.952Z,669.00
2023-05-31T10:13:18.922Z,728.00
2023-05-31T10:14:18.888Z,798.00
2023-05-31T10:15:18.913Z,875.00
2023-05-31T10:16:19.020Z,923.00
2023-05-31T10:17:18.948Z,942.00
2023-05-31T10:18:18.975Z,962.00
2023-05-31T10:19:19.101Z,984.00
2023-05-31T10:20:19.035Z,1039.00
2023-05-31T10:21:19.035Z,1047.00
2023-05-31T10:22:19.043Z,1071.00
2023-05-31T10:23:19.058Z,1082.00
2023-05-31T10:24:19.092Z,1057.00
2023-05-31T10:25:19.116Z,1031.00
2023-05-31T10:26:19.136Z,926.00
2023-05-31T10:27:19.172Z,929.00
2023-05-31T10:28:19.152Z,923.00
2023-05-31T10:29:19.184Z,1002.00
2023-05-31T10:30:19.200Z,969.00
2023-05-31T10:31:19.292Z,962.00
2023-05-31T10:32:19.268Z,971.00
2023-05-31T10:33:19.274Z,1001.00
2023-05-31T10:34:19.290Z,1057.00
2023-05-31T10:35:19.321Z,1098.00
2023-05-31T10:36:19.326Z,1117.00
2023-05-31T10:37:19.363Z,1179.00
2023-05-31T10:38:19.353Z,1225.00
2023-05-31T10:39:19.358Z,1222.00
2023-05-31T10:40:19.386Z,1064.00
2023-05-31T10:41:25.068Z,1010.00
2023-05-31T10:42:20.329Z,886.00
2023-05-31T10:43:19.286Z,897.00
2023-05-31T10:44:19.351Z,773.00
2023-05-31T10:45:19.229Z,674.00
2023-05-31T10:46:19.228Z,635.00
2023-05-31T10:47:19.213Z,632.00
2023-05-31T10:48:19.188Z,620.00
2023-05-31T10:49:19.113Z,613.00
2023-05-31T10:50:19.090Z,625.00
2023-05-31T10:51:19.051Z,635.00
2023-05-31T10:52:19.044Z,638.00
2023-05-31T10:53:19.005Z,656.00
2023-05-31T10:54:18.996Z,658.00
2023-05-31T10:55:18.954Z,661.00
2023-05-31T10:56:18.954Z,691.00
2023-05-31T10:57:18.958Z,696.00
2023-05-31T10:58:18.971Z,686.00
2023-05-31T10:59:19.005Z,674.00
2023-05-31T11:00:19.041Z,660.00
2023-05-31T11:01:19.102Z,647.00
2023-05-31T11:02:19.174Z,644.00
2023-05-31T11:03:19.167Z,645.00
2023-05-31T11:04:19.326Z,653.00
2023-05-31T11:05:19.157Z,670.00
2023-05-31T11:06:19.154Z,721.00
2023-05-31T11:07:19.193Z,713.00
2023-05-31T11:08:19.200Z,748.00
2023-05-31T11:09:19.220Z,771.00
2023-05-31T11:10:19.263Z,809.00
2023-05-31T11:11:19.268Z,836.00
2023-05-31T11:12:19.296Z,889.00
2023-05-31T11:13:19.699Z,913.00
2023-05-31T11:14:19.349Z,857.00
2023-05-31T11:15:19.390Z,829.00
2023-05-31T11:16:19.458Z,836.00
2023-05-31T11:17:19.436Z,915.00
2023-05-31T11:18:19.473Z,926.00
2023-05-31T11:19:19.494Z,868.00
2023-05-31T11:20:19.582Z,870.00
2023-05-31T11:21:19.452Z,885.00
2023-05-31T11:22:19.424Z,914.00
2023-05-31T11:23:19.403Z,955.00
2023-05-31T11:24:19.444Z,1006.00
2023-05-31T11:25:19.413Z,1054.00
2023-05-31T11:26:19.361Z,1050.00
2023-05-31T11:27:19.362Z,1092.00
2023-05-31T11:28:19.267Z,1041.00
2023-05-31T11:29:19.246Z,1020.00
2023-05-31T11:30:19.285Z,1077.00
2023-05-31T11:31:19.307Z,1090.00
2023-05-31T11:32:19.370Z,1141.00
2023-05-31T11:33:19.368Z,1127.00
2023-05-31T11:34:19.383Z,1106.00
2023-05-31T11:35:19.407Z,1130.00
2023-05-31T11:36:19.423Z,1129.00
2023-05-31T11:37:19.469Z,1104.00
2023-05-31T11:38:19.473Z,1109.00
2023-05-31T11:39:19.469Z,1187.00
2023-05-31T11:40:19.513Z,1247.00
2023-05-31T11:41:19.492Z,1318.00
2023-05-31T11:42:19.542Z,1371.00
2023-05-31T11:43:19.505Z,1439.00
2023-05-31T11:44:19.517Z,1489.00
2023-05-31T11:45:19.564Z,1524.00
2023-05-31T11:46:19.527Z,1580.00
2023-05-31T11:47:19.564Z,1616.00
2023-05-31T11:48:19.561Z,1640.00
2023-05-31T11:49:19.509Z,1680.00
2023-05-31T11:50:19.539Z,1707.00
2023-05-31T11:51:19.561Z,1734.00
2023-05-31T11:52:19.592Z,1751.00
2023-05-31T11:53:19.542Z,1776.00
2023-05-31T11:54:19.512Z,1793.00
2023-05-31T11:55:19.533Z,1798.00
2023-05-31T11:56:19.506Z,1834.00
2023-05-31T11:57:19.521Z,1901.00
2023-05-31T11:58:19.505Z,1920.00
2023-05-31T11:59:19.510Z,1921.00
2023-05-31T12:00:19.470Z,1930.00
2023-05-31T12:01:19.450Z,1935.00
2023-05-31T12:02:19.579Z,1964.00
2023-05-31T12:03:19.604Z,2016.00
2023-05-31T12:04:19.530Z,2084.00
2023-05-31T12:05:19.396Z,2086.00
2023-05-31T12:06:19.370Z,2100.00
2023-05-31T12:07:19.377Z,2089.00
2023-05-31T12:08:19.325Z,2113.00
2023-05-31T12:09:19.293Z,2162.00
2023-05-31T12:10:19.240Z,2236.00
2023-05-31T12:11:19.199Z,2377.00
2023-05-31T12:12:19.224Z,2404.00
2023-05-31T12:13:19.175Z,2457.00